»·PEaware :: N512PC KAPV-KBFL

N512PC :: KAPV-KBFL

FLIGHT INFORMATION

Flight Status: Arrived
Operator: Privately registered:
United States
More flights under this callsign
Pilot: Jacob V. (20481)
Aircraft: BEECH AIRCRAFT BARON
(BE58)
More flights by this aircraft type
Origin: KAPV Apple Valley
United States
Destination: KBFL Meadows
United States
More flights between these airports :: More routes between these airports
Route: +EXCPN1 HELDE PMD KBFL
File this flight plan on PilotEdge
Remarks:
Altitude:
(Current/Filed)
8,500ft
Speed:
(Current/Filed)
180kts
Departed: 05-Oct-18 10:14 PM
Arrived: 05-Oct-18 11:02 PM
Distance/Time
Traveled:
106nm/0:47
Distance/Time
To Go:
Arrived

Flight Plot

Page will automatically refresh every two minutes.

Flight plan parsing failed; only flown route is shown


Map Options




Map Legend


Flown Route
Filed Route
Departure Airport
Arrival Airport
Navaid (VOR, NDB)
Fix

Horizontal Profiles

Position Reports

Time Latitude Longitude Heading Altitude Ground
Speed
05-Oct-18 21:54 34.575952 -117.190473 89 3065ft 0kts
05-Oct-18 21:55 34.575952 -117.190473 89 3065ft 0kts
05-Oct-18 21:56 34.575952 -117.190473 89 3065ft 0kts
05-Oct-18 21:57 34.575952 -117.190473 89 3065ft 0kts
05-Oct-18 21:58 34.575952 -117.190464 89 3066ft 0kts
05-Oct-18 21:59 34.575952 -117.190473 89 3065ft 0kts
05-Oct-18 22:00 34.575952 -117.190473 89 3065ft 0kts
05-Oct-18 22:01 34.575952 -117.190473 89 3065ft 0kts
05-Oct-18 22:02 34.575952 -117.190473 89 3065ft 0kts
05-Oct-18 22:03 34.575952 -117.190473 89 3065ft 0kts
05-Oct-18 22:04 34.575952 -117.190473 89 3065ft 0kts
05-Oct-18 22:05 34.575952 -117.190473 89 3065ft 0kts
05-Oct-18 22:06 34.575952 -117.190473 89 3065ft 0kts
05-Oct-18 22:07 34.575952 -117.190473 90 3065ft 0kts
05-Oct-18 22:08 34.575951 -117.190473 89 3065ft 0kts
05-Oct-18 22:09 34.575951 -117.190473 89 3065ft 0kts
05-Oct-18 22:10 34.575951 -117.190473 89 3065ft 0kts
05-Oct-18 22:11 34.575837 -117.188063 152 3065ft 11kts
05-Oct-18 22:12 34.573371 -117.188848 168 3065ft 6kts
05-Oct-18 22:13 34.573246 -117.188572 103 3065ft 0kts
05-Oct-18 22:14 34.573246 -117.188572 103 3065ft 0kts
05-Oct-18 22:15 34.573559 -117.187412 19 3065ft 16kts
05-Oct-18 22:16 34.599180 -117.176552 32 3779ft 119kts
05-Oct-18 22:17 34.630316 -117.165872 335 5112ft 123kts
05-Oct-18 22:18 34.662734 -117.164859 348 6683ft 90kts
05-Oct-18 22:19 34.694824 -117.172170 336 7488ft 123kts
05-Oct-18 22:20 34.723685 -117.189464 331 8702ft 112kts
05-Oct-18 22:21 34.749361 -117.216662 282 9012ft 152kts
05-Oct-18 22:22 34.739716 -117.270516 248 8996ft 172kts
05-Oct-18 22:23 34.718214 -117.322417 254 8999ft 172kts
05-Oct-18 22:24 34.707419 -117.372927 261 8998ft 170kts
05-Oct-18 22:25 34.699345 -117.429281 264 8998ft 169kts
05-Oct-18 22:26 34.692750 -117.485960 264 8998ft 169kts
05-Oct-18 22:27 34.687267 -117.537058 265 9000ft 173kts
05-Oct-18 22:28 34.681094 -117.596258 265 8999ft 180kts
05-Oct-18 22:29 34.674829 -117.656246 264 8999ft 181kts
05-Oct-18 22:30 34.668240 -117.716709 264 9000ft 182kts
05-Oct-18 22:31 34.661818 -117.777617 265 9000ft 182kts
05-Oct-18 22:32 34.655434 -117.838161 265 9000ft 182kts
05-Oct-18 22:33 34.648979 -117.899042 265 8999ft 183kts
05-Oct-18 22:34 34.642503 -117.959885 265 8999ft 183kts
05-Oct-18 22:35 34.635963 -118.021182 265 8999ft 184kts
05-Oct-18 22:36 34.641583 -118.079059 312 9001ft 178kts
05-Oct-18 22:37 34.672556 -118.120684 312 9689ft 151kts
05-Oct-18 22:38 34.698003 -118.153299 314 10613ft 131kts
05-Oct-18 22:39 34.722815 -118.185496 314 11111ft 145kts
05-Oct-18 22:40 34.751482 -118.223036 314 11261ft 155kts
05-Oct-18 22:41 34.780506 -118.261429 313 11472ft 156kts
05-Oct-18 22:42 34.809198 -118.299579 314 11685ft 156kts
05-Oct-18 22:43 34.836972 -118.336574 313 11873ft 162kts
05-Oct-18 22:44 34.868855 -118.378277 314 10823ft 188kts
05-Oct-18 22:45 34.898443 -118.418015 313 11051ft 150kts
05-Oct-18 22:46 34.925781 -118.454618 313 11020ft 152kts
05-Oct-18 22:47 34.954344 -118.490714 316 10635ft 166kts
05-Oct-18 22:48 34.984143 -118.525572 316 10160ft 170kts
05-Oct-18 22:49 35.004014 -118.548731 316 10044ft 179kts
05-Oct-18 22:50 35.039355 -118.589636 316 9243ft 199kts
05-Oct-18 22:51 35.075080 -118.631278 316 9094ft 184kts
05-Oct-18 22:52 35.108065 -118.669679 316 8589ft 193kts
05-Oct-18 22:53 35.145898 -118.713786 316 7306ft 194kts
05-Oct-18 22:54 35.182138 -118.756120 316 6542ft 174kts
05-Oct-18 22:55 35.215679 -118.795285 316 6315ft 172kts
05-Oct-18 22:56 35.251960 -118.837686 316 5516ft 185kts
05-Oct-18 22:57 35.288677 -118.881324 315 4712ft 188kts
05-Oct-18 22:58 35.325087 -118.921828 321 4244ft 183kts
05-Oct-18 22:59 35.350945 -118.959799 315 2577ft 161kts
05-Oct-18 23:00 35.376285 -118.987007 313 1922ft 130kts
05-Oct-18 23:01 35.396004 -119.010584 313 1492ft 115kts
05-Oct-18 23:02 35.415546 -119.034332 316 967ft 108kts
05-Oct-18 23:03 35.435440 -119.058153 315 488ft 82kts
05-Oct-18 23:04 35.440403 -119.062702 8 497ft 0kts
05-Oct-18 23:05 35.440403 -119.062702 8 497ft 0kts
05-Oct-18 23:06 35.440403 -119.062702 8 497ft 0kts
05-Oct-18 23:07 35.440403 -119.062702 8 497ft 0kts
05-Oct-18 23:08 35.440403 -119.062702 8 497ft 0kts

Navigation Log

Ident Type
Flight plan parsing failed, navigation log unavailable